createdAt,value
2018-06-28T00:04:38.965Z,15.40
2018-06-28T00:07:07.593Z,15.40
2018-06-28T00:09:36.515Z,15.40
2018-06-28T00:12:05.087Z,15.40
2018-06-28T00:14:33.804Z,15.40
2018-06-28T00:17:02.436Z,15.40
2018-06-28T00:19:31.450Z,15.40
2018-06-28T00:22:00.087Z,15.40
2018-06-28T00:24:28.719Z,15.40
2018-06-28T00:26:57.323Z,15.40
2018-06-28T00:29:25.911Z,15.50
2018-06-28T00:31:54.652Z,15.50
2018-06-28T00:34:23.143Z,15.40
2018-06-28T00:36:51.650Z,15.40
2018-06-28T00:39:20.190Z,15.40
2018-06-28T00:41:48.686Z,15.40
2018-06-28T00:44:17.111Z,15.40
2018-06-28T00:46:45.614Z,15.40
2018-06-28T00:49:14.086Z,15.40
2018-06-28T00:51:42.546Z,15.30
2018-06-28T00:54:11.290Z,15.30
2018-06-28T00:56:39.819Z,15.30
2018-06-28T00:59:08.254Z,15.20
2018-06-28T01:01:36.748Z,15.20
2018-06-28T01:04:05.290Z,15.10
2018-06-28T01:06:34.138Z,15.10
2018-06-28T01:09:03.046Z,15.10
2018-06-28T01:11:31.954Z,15.10
2018-06-28T01:14:00.452Z,15.10
2018-06-28T01:16:29.054Z,15.10
2018-06-28T01:21:25.711Z,15.10
2018-06-28T01:23:55.000Z,15.10
2018-06-28T01:26:24.162Z,15.00
2018-06-28T01:28:53.447Z,14.90
2018-06-28T01:31:23.295Z,14.90
2018-06-28T01:33:52.609Z,14.80
2018-06-28T01:36:21.176Z,14.70
2018-06-28T01:38:49.929Z,14.60
2018-06-28T01:41:18.601Z,14.50
2018-06-28T01:43:47.862Z,14.40
2018-06-28T01:46:17.498Z,14.30
2018-06-28T01:48:46.119Z,14.20
2018-06-28T01:51:14.670Z,14.00
2018-06-28T01:53:44.301Z,14.00
2018-06-28T01:56:12.864Z,13.90
2018-06-28T01:58:41.520Z,13.80
2018-06-28T02:01:10.138Z,13.80
2018-06-28T02:03:38.614Z,13.80
2018-06-28T02:06:07.225Z,13.70
2018-06-28T02:08:35.991Z,13.70
2018-06-28T02:11:04.610Z,13.60
2018-06-28T02:13:33.102Z,13.60
2018-06-28T02:16:01.626Z,13.60
2018-06-28T02:18:30.161Z,13.60
2018-06-28T02:20:58.769Z,13.60
2018-06-28T02:23:27.438Z,13.60
2018-06-28T02:25:55.959Z,13.60
2018-06-28T02:28:24.446Z,13.50
2018-06-28T02:30:52.934Z,13.50
2018-06-28T02:33:21.374Z,13.50
2018-06-28T02:35:50.155Z,13.50
2018-06-28T02:38:18.831Z,13.50
2018-06-28T02:40:47.309Z,13.50
2018-06-28T02:43:15.821Z,13.50
2018-06-28T02:45:44.330Z,13.50
2018-06-28T02:48:12.873Z,13.40
2018-06-28T02:50:41.461Z,13.40
2018-06-28T02:53:09.944Z,13.40
2018-06-28T02:55:38.400Z,13.40
2018-06-28T02:58:07.043Z,13.50
2018-06-28T03:00:35.538Z,13.60
2018-06-28T03:03:04.018Z,13.60
2018-06-28T03:05:32.503Z,13.70
2018-06-28T03:08:01.070Z,13.80
2018-06-28T03:10:29.703Z,13.80
2018-06-28T03:12:58.423Z,13.90
2018-06-28T03:15:27.052Z,13.90
2018-06-28T03:17:55.659Z,14.00
2018-06-28T03:20:24.157Z,14.10
2018-06-28T03:22:52.706Z,14.10
2018-06-28T03:25:21.400Z,14.20
2018-06-28T03:27:50.096Z,14.20
2018-06-28T03:30:18.894Z,14.20
2018-06-28T03:32:47.446Z,14.30
2018-06-28T03:35:15.918Z,14.20
2018-06-28T03:37:44.475Z,14.20
2018-06-28T03:40:13.031Z,14.20
2018-06-28T03:42:41.535Z,14.20
2018-06-28T03:45:10.087Z,14.30
2018-06-28T03:47:38.763Z,14.30
2018-06-28T03:50:07.595Z,14.40
2018-06-28T03:52:36.225Z,14.40
2018-06-28T03:55:05.046Z,14.50
2018-06-28T03:57:33.636Z,14.50
2018-06-28T04:00:02.219Z,14.60
2018-06-28T04:02:30.810Z,14.60
2018-06-28T04:07:27.459Z,14.80
2018-06-28T04:09:55.982Z,14.80
2018-06-28T04:12:24.623Z,14.90
2018-06-28T04:14:53.091Z,14.90
2018-06-28T04:17:21.618Z,15.00
2018-06-28T04:19:50.129Z,15.10
2018-06-28T04:22:23.768Z,15.20
2018-06-28T04:24:52.281Z,15.20
2018-06-28T04:28:49.971Z,15.30
2018-06-28T04:31:18.427Z,15.40
2018-06-28T04:33:46.898Z,15.60
2018-06-28T04:36:15.370Z,15.60
2018-06-28T04:38:43.816Z,15.70
2018-06-28T04:41:12.266Z,15.90
2018-06-28T04:43:40.751Z,16.00
2018-06-28T04:48:37.347Z,16.20
2018-06-28T04:51:05.929Z,16.30
2018-06-28T04:53:34.356Z,16.40
2018-06-28T04:56:02.805Z,16.50
2018-06-28T04:58:31.384Z,16.60
2018-06-28T05:00:59.910Z,16.70
2018-06-28T05:03:28.398Z,16.80
2018-06-28T05:05:56.887Z,17.00
2018-06-28T05:08:25.402Z,17.10
2018-06-28T05:10:53.971Z,17.20
2018-06-28T05:13:22.494Z,17.30
2018-06-28T05:15:51.202Z,17.30
2018-06-28T05:18:19.680Z,17.40
2018-06-28T05:20:48.220Z,17.50
2018-06-28T05:23:16.724Z,17.50
2018-06-28T05:28:13.515Z,17.50
2018-06-28T05:30:41.974Z,17.60
2018-06-28T05:33:10.508Z,17.60
2018-06-28T05:35:39.127Z,17.60
2018-06-28T05:38:07.598Z,17.70
2018-06-28T05:43:04.318Z,17.80
2018-06-28T05:45:32.778Z,17.90
2018-06-28T05:48:01.395Z,18.00
2018-06-28T05:50:29.977Z,18.10
2018-06-28T05:52:58.453Z,18.20
2018-06-28T05:55:26.870Z,18.30
2018-06-28T05:57:55.334Z,18.30
2018-06-28T06:00:23.845Z,18.40
2018-06-28T06:02:52.414Z,18.60
2018-06-28T06:05:20.993Z,18.60
2018-06-28T06:07:49.434Z,18.70
2018-06-28T06:10:17.968Z,18.80
2018-06-28T06:12:46.481Z,18.90
2018-06-28T06:15:15.035Z,19.00
2018-06-28T06:17:43.532Z,19.00
2018-06-28T06:20:12.037Z,19.10
2018-06-28T06:22:40.467Z,19.20
2018-06-28T06:25:08.975Z,19.30
2018-06-28T06:27:37.410Z,19.40
2018-06-28T06:30:06.858Z,19.60
2018-06-28T06:32:35.382Z,19.70
2018-06-28T06:35:04.126Z,19.90
2018-06-28T06:37:32.627Z,20.00
2018-06-28T06:40:01.182Z,20.30
2018-06-28T06:42:29.644Z,20.50
2018-06-28T06:44:58.144Z,20.60
2018-06-28T06:47:26.658Z,20.80
2018-06-28T06:49:55.139Z,21.00
2018-06-28T06:52:23.629Z,21.20
2018-06-28T06:54:52.190Z,21.30
2018-06-28T06:57:20.703Z,21.40
2018-06-28T06:59:49.183Z,21.50
2018-06-28T07:02:17.679Z,21.70
2018-06-28T07:04:46.181Z,21.80
2018-06-28T07:07:14.741Z,21.90
2018-06-28T07:09:43.463Z,22.00
2018-06-28T07:12:11.921Z,22.10
2018-06-28T07:14:40.400Z,22.30
2018-06-28T07:17:08.907Z,22.40
2018-06-28T07:19:37.483Z,22.40
2018-06-28T07:22:06.357Z,22.50
2018-06-28T07:24:34.845Z,22.60
2018-06-28T07:27:03.370Z,22.80
2018-06-28T07:29:31.904Z,22.90
2018-06-28T07:32:00.411Z,23.00
2018-06-28T07:34:28.908Z,23.10
2018-06-28T07:36:57.491Z,23.20
2018-06-28T07:39:25.963Z,23.20
2018-06-28T07:41:54.502Z,23.30
2018-06-28T07:44:23.002Z,23.40
2018-06-28T07:46:51.518Z,23.50
2018-06-28T07:49:20.056Z,23.60
2018-06-28T07:51:48.604Z,23.70
2018-06-28T07:54:17.107Z,23.70
2018-06-28T07:56:45.627Z,23.80
2018-06-28T07:59:14.130Z,23.80
2018-06-28T08:01:42.623Z,23.80
2018-06-28T08:04:11.096Z,24.00
2018-06-28T08:06:39.613Z,24.00
2018-06-28T08:09:08.759Z,24.10
2018-06-28T08:11:37.279Z,24.20
2018-06-28T08:14:06.173Z,24.20
2018-06-28T08:16:35.290Z,24.30
2018-06-28T08:19:03.794Z,24.40
2018-06-28T08:21:32.377Z,24.40
2018-06-28T08:24:00.846Z,24.50
2018-06-28T08:26:29.447Z,24.70
2018-06-28T08:31:26.130Z,24.80
2018-06-28T08:33:54.670Z,24.90
2018-06-28T08:36:23.166Z,24.90
2018-06-28T08:38:51.763Z,24.90
2018-06-28T08:41:20.306Z,25.00
2018-06-28T08:43:48.774Z,25.00
2018-06-28T08:46:17.298Z,25.10
2018-06-28T08:48:45.918Z,25.10
2018-06-28T08:51:14.398Z,25.10
2018-06-28T08:53:42.881Z,25.20
2018-06-28T08:58:39.498Z,25.50
2018-06-28T09:01:08.006Z,25.50
2018-06-28T09:03:36.508Z,25.60
2018-06-28T09:06:05.095Z,25.70
2018-06-28T09:08:33.897Z,25.80
2018-06-28T09:11:02.504Z,25.80
2018-06-28T09:13:31.979Z,25.90
2018-06-28T09:16:00.526Z,25.90
2018-06-28T09:18:29.076Z,26.00
2018-06-28T09:20:57.563Z,26.00
2018-06-28T09:23:29.314Z,26.10
2018-06-28T09:25:57.911Z,26.10
2018-06-28T09:28:26.394Z,26.10
2018-06-28T09:30:54.870Z,26.30
2018-06-28T09:33:23.363Z,26.40
2018-06-28T09:35:52.038Z,26.40
2018-06-28T09:38:20.535Z,26.40
2018-06-28T09:40:49.074Z,26.30
2018-06-28T09:43:17.555Z,26.30
2018-06-28T09:45:46.994Z,26.40
2018-06-28T09:48:15.802Z,26.40
2018-06-28T09:50:44.783Z,26.40
2018-06-28T09:53:13.510Z,26.50
2018-06-28T09:55:41.999Z,26.50
2018-06-28T09:58:10.494Z,26.50
2018-06-28T10:00:48.089Z,26.60
2018-06-28T10:03:16.610Z,26.60
2018-06-28T10:05:45.130Z,26.60
2018-06-28T10:08:13.711Z,26.60
2018-06-28T10:10:42.330Z,26.70
2018-06-28T10:17:08.260Z,26.70
2018-06-28T10:19:36.858Z,26.70
2018-06-28T10:22:05.338Z,26.80
2018-06-28T10:24:33.996Z,26.90
2018-06-28T10:27:02.599Z,27.00
2018-06-28T10:29:31.138Z,27.10
2018-06-28T10:31:59.672Z,27.10
2018-06-28T10:34:28.152Z,27.10
2018-06-28T10:36:56.822Z,27.20
2018-06-28T10:39:25.565Z,27.30
2018-06-28T10:41:54.191Z,27.30
2018-06-28T10:44:22.673Z,27.30
2018-06-28T10:46:51.978Z,27.20
2018-06-28T10:49:20.438Z,27.20
2018-06-28T10:51:48.938Z,27.30
2018-06-28T10:54:17.878Z,27.40
2018-06-28T10:56:46.655Z,27.40
2018-06-28T10:59:15.930Z,27.50
2018-06-28T11:01:45.669Z,27.50
2018-06-28T11:04:14.190Z,27.50
2018-06-28T11:06:42.652Z,27.50
2018-06-28T11:09:11.958Z,27.50
2018-06-28T11:11:41.030Z,27.50
2018-06-28T11:14:09.547Z,27.60
2018-06-28T11:16:38.085Z,27.60
2018-06-28T11:19:06.530Z,27.70
2018-06-28T11:21:35.144Z,27.70
2018-06-28T11:24:03.747Z,27.70
2018-06-28T11:26:32.338Z,27.70
2018-06-28T11:29:00.884Z,27.70
2018-06-28T11:31:29.467Z,27.70
2018-06-28T11:33:57.983Z,27.70
2018-06-28T11:36:26.454Z,27.70
2018-06-28T11:38:54.944Z,27.80
2018-06-28T11:41:23.502Z,28.00
2018-06-28T11:43:52.187Z,28.20
2018-06-28T11:46:20.681Z,28.20
2018-06-28T11:48:49.217Z,28.20
2018-06-28T11:51:18.032Z,28.20
2018-06-28T11:56:14.813Z,28.20
2018-06-28T11:58:43.297Z,28.30
2018-06-28T12:01:11.814Z,28.30
2018-06-28T12:03:40.307Z,28.40
2018-06-28T12:06:08.806Z,28.30
2018-06-28T12:08:37.330Z,28.20
2018-06-28T12:11:06.116Z,28.30
2018-06-28T12:13:34.713Z,28.30
2018-06-28T12:16:03.544Z,28.50
2018-06-28T12:18:32.108Z,28.60
2018-06-28T12:21:00.615Z,28.60
2018-06-28T12:23:29.187Z,28.60
2018-06-28T12:25:57.711Z,28.70
2018-06-28T12:28:26.186Z,28.80
2018-06-28T12:33:22.838Z,28.80
2018-06-28T12:35:56.802Z,28.90
2018-06-28T12:38:25.262Z,29.10
2018-06-28T12:40:53.891Z,29.20
2018-06-28T12:43:22.377Z,29.10
2018-06-28T12:45:51.029Z,29.30
2018-06-28T12:48:19.598Z,29.40
2018-06-28T12:50:48.119Z,29.50
2018-06-28T12:53:16.651Z,29.60
2018-06-28T12:56:50.614Z,29.70
2018-06-28T12:59:20.502Z,29.70
2018-06-28T13:01:49.470Z,29.80
2018-06-28T13:04:18.031Z,29.80
2018-06-28T13:06:46.523Z,29.90
2018-06-28T13:09:16.402Z,29.90
2018-06-28T13:11:44.952Z,29.90
2018-06-28T13:14:13.555Z,29.90
2018-06-28T13:16:42.520Z,29.80
2018-06-28T13:21:39.230Z,30.00
2018-06-28T13:24:07.770Z,30.20
2018-06-28T13:26:36.307Z,30.20
2018-06-28T13:29:04.914Z,30.30
2018-06-28T13:31:33.483Z,30.20
2018-06-28T13:34:02.043Z,30.30
2018-06-28T13:36:32.293Z,30.40
2018-06-28T13:39:00.947Z,30.40
2018-06-28T13:41:29.702Z,30.30
2018-06-28T13:43:58.174Z,30.20
2018-06-28T13:46:26.718Z,30.10
2018-06-28T13:48:55.662Z,30.20
2018-06-28T13:51:24.215Z,30.30
2018-06-28T13:53:52.967Z,30.40
2018-06-28T13:56:21.573Z,30.40
2018-06-28T13:58:50.072Z,30.30
2018-06-28T14:01:18.558Z,30.20
2018-06-28T14:03:47.218Z,30.20
2018-06-28T14:06:15.782Z,30.30
2018-06-28T14:11:14.215Z,30.00
2018-06-28T14:13:42.989Z,29.90
2018-06-28T14:16:12.799Z,29.80
2018-06-28T14:18:41.458Z,29.80
2018-06-28T14:21:09.984Z,29.70
2018-06-28T14:23:38.658Z,29.60
2018-06-28T14:26:07.215Z,29.40
2018-06-28T14:28:35.762Z,29.30
2018-06-28T14:31:04.458Z,29.30
2018-06-28T14:33:33.135Z,29.30
2018-06-28T14:36:02.568Z,29.30
2018-06-28T14:38:31.430Z,29.30
2018-06-28T14:41:00.052Z,29.20
2018-06-28T14:43:28.566Z,29.10
2018-06-28T14:45:57.183Z,29.00
2018-06-28T14:48:25.776Z,29.10
2018-06-28T14:50:54.299Z,29.10
2018-06-28T14:53:22.880Z,29.10
2018-06-28T14:55:51.678Z,29.20
2018-06-28T14:58:20.653Z,29.20
2018-06-28T15:00:49.350Z,29.30
2018-06-28T15:03:17.953Z,29.40
2018-06-28T15:05:46.626Z,29.40
2018-06-28T15:08:15.227Z,29.30
2018-06-28T15:10:44.232Z,29.40
2018-06-28T15:13:12.900Z,29.40
2018-06-28T15:15:41.636Z,29.30
2018-06-28T15:18:10.662Z,29.30
2018-06-28T15:20:39.430Z,29.40
2018-06-28T15:23:08.494Z,29.40
2018-06-28T15:25:37.061Z,29.30
2018-06-28T15:30:34.016Z,29.30
2018-06-28T15:33:02.655Z,29.50
2018-06-28T15:35:31.772Z,29.70
2018-06-28T15:38:00.347Z,29.80
2018-06-28T15:40:29.902Z,29.90
2018-06-28T15:42:58.474Z,30.10
2018-06-28T15:45:27.295Z,30.30
2018-06-28T15:47:56.688Z,30.40
2018-06-28T15:50:25.768Z,30.70
2018-06-28T15:52:54.460Z,30.90
2018-06-28T15:55:24.298Z,31.10
2018-06-28T15:57:52.931Z,31.20
2018-06-28T16:00:22.467Z,31.40
2018-06-28T16:02:51.018Z,31.70
2018-06-28T16:05:19.546Z,32.00
2018-06-28T16:07:48.047Z,32.40
2018-06-28T16:10:16.572Z,32.70
2018-06-28T16:12:45.198Z,33.30
2018-06-28T16:15:13.666Z,33.40
2018-06-28T16:17:42.274Z,33.40
2018-06-28T16:20:10.896Z,33.60
2018-06-28T16:22:39.405Z,33.70
2018-06-28T16:25:07.930Z,33.90
2018-06-28T16:27:36.467Z,34.00
2018-06-28T16:30:05.376Z,34.30
2018-06-28T16:32:33.938Z,34.20
2018-06-28T16:35:02.658Z,34.20
2018-06-28T16:37:31.304Z,34.20
2018-06-28T16:39:59.829Z,34.30
2018-06-28T16:42:28.366Z,34.00
2018-06-28T16:44:56.921Z,33.80
2018-06-28T16:47:25.417Z,33.90
2018-06-28T16:49:53.987Z,33.90
2018-06-28T16:52:22.514Z,33.90
2018-06-28T16:54:50.994Z,34.00
2018-06-28T16:57:19.594Z,34.00
2018-06-28T16:59:48.084Z,34.20
2018-06-28T17:02:16.802Z,34.20
2018-06-28T17:04:45.322Z,34.40
2018-06-28T17:07:14.054Z,34.40
2018-06-28T17:09:42.546Z,34.30
2018-06-28T17:12:11.200Z,34.30
2018-06-28T17:14:39.839Z,34.20
2018-06-28T17:17:08.438Z,34.00
2018-06-28T17:19:37.042Z,34.00
2018-06-28T17:22:05.660Z,34.00
2018-06-28T17:24:34.194Z,34.10
2018-06-28T17:27:02.846Z,34.10
2018-06-28T17:29:31.479Z,33.90
2018-06-28T17:32:00.035Z,33.70
2018-06-28T17:34:28.552Z,33.50
2018-06-28T17:36:57.027Z,33.30
2018-06-28T17:39:25.610Z,33.00
2018-06-28T17:41:54.115Z,32.70
2018-06-28T17:44:22.683Z,32.60
2018-06-28T17:49:19.398Z,32.20
2018-06-28T17:51:47.886Z,32.00
2018-06-28T17:54:16.414Z,32.10
2018-06-28T17:56:44.908Z,32.10
2018-06-28T17:59:13.374Z,31.90
2018-06-28T18:01:41.881Z,31.70
2018-06-28T18:04:10.339Z,31.20
2018-06-28T18:09:09.159Z,29.50
2018-06-28T18:11:38.550Z,28.70
2018-06-28T18:14:07.195Z,27.90
2018-06-28T18:16:35.726Z,27.20
2018-06-28T18:21:32.478Z,26.20
2018-06-28T18:26:29.262Z,25.60
2018-06-28T18:28:57.785Z,25.30
2018-06-28T18:31:26.320Z,25.10
2018-06-28T18:33:54.778Z,25.00
2018-06-28T18:36:23.258Z,24.80
2018-06-28T18:38:51.813Z,24.60
2018-06-28T18:41:20.310Z,24.40
2018-06-28T18:43:48.814Z,24.20
2018-06-28T18:46:17.362Z,24.10
2018-06-28T18:48:45.846Z,23.90
2018-06-28T18:51:14.378Z,23.80
2018-06-28T18:53:42.886Z,23.70
2018-06-28T18:56:11.426Z,23.60
2018-06-28T18:58:40.103Z,23.50
2018-06-28T19:01:08.626Z,23.40
2018-06-28T19:03:39.639Z,23.40
2018-06-28T19:06:10.029Z,23.30
2018-06-28T19:08:38.916Z,23.20
2018-06-28T19:11:09.444Z,23.10
2018-06-28T19:13:44.021Z,23.10
2018-06-28T19:17:19.950Z,23.00
2018-06-28T19:19:49.958Z,22.90
2018-06-28T19:22:25.259Z,22.80
2018-06-28T19:27:35.630Z,22.70
2018-06-28T19:30:10.323Z,22.60
2018-06-28T19:32:39.998Z,22.60
2018-06-28T19:35:10.972Z,22.60
2018-06-28T19:37:46.921Z,22.60
2018-06-28T19:40:22.418Z,22.50
2018-06-28T19:42:55.980Z,22.50
2018-06-28T19:45:25.757Z,22.40
2018-06-28T19:47:57.921Z,22.40
2018-06-28T19:50:33.342Z,22.40
2018-06-28T19:53:10.961Z,22.30
2018-06-28T19:55:40.638Z,22.20
2018-06-28T19:58:14.526Z,22.10
2018-06-28T20:00:52.258Z,22.00
2018-06-28T20:03:28.136Z,21.90
2018-06-28T20:06:13.110Z,21.90
2018-06-28T20:08:42.823Z,21.80
2018-06-28T20:11:11.552Z,21.70
2018-06-28T20:13:45.460Z,21.60
2018-06-28T20:16:19.404Z,21.50
2018-06-28T20:18:53.175Z,21.40
2018-06-28T20:21:22.906Z,21.30
2018-06-28T20:23:59.234Z,21.20
2018-06-28T20:26:40.550Z,21.10
2018-06-28T20:29:18.396Z,21.00
2018-06-28T20:31:56.377Z,20.90
2018-06-28T20:34:24.972Z,20.90
2018-06-28T20:36:53.461Z,20.80
2018-06-28T20:39:22.122Z,20.80
2018-06-28T20:41:50.630Z,20.70
2018-06-28T20:55:50.535Z,20.40
2018-06-28T20:58:19.902Z,20.30
2018-06-28T21:00:48.442Z,20.30
2018-06-28T21:05:46.416Z,20.10
2018-06-28T21:08:14.929Z,20.10
2018-06-28T21:10:43.672Z,20.00
2018-06-28T21:13:12.367Z,20.00
2018-06-28T21:15:41.612Z,20.00
2018-06-28T21:18:10.473Z,19.90
2018-06-28T21:20:38.966Z,19.90
2018-06-28T21:23:07.660Z,19.80
2018-06-28T21:25:36.178Z,19.80
2018-06-28T21:28:04.722Z,19.70
2018-06-28T21:30:33.339Z,19.70
2018-06-28T21:33:01.829Z,19.60
2018-06-28T21:35:30.659Z,19.60
2018-06-28T21:37:59.179Z,19.50
2018-06-28T21:40:27.766Z,19.50
2018-06-28T21:42:56.254Z,19.40
2018-06-28T21:45:24.730Z,19.30
2018-06-28T21:50:21.399Z,19.20
2018-06-28T21:52:49.990Z,19.20
2018-06-28T21:55:18.611Z,19.10
2018-06-28T21:57:47.077Z,19.00
2018-06-28T22:00:24.614Z,18.90
2018-06-28T22:02:53.066Z,18.90
2018-06-28T22:05:21.521Z,18.80
2018-06-28T22:07:50.077Z,18.80
2018-06-28T22:10:18.496Z,18.70
2018-06-28T22:12:46.962Z,18.70
2018-06-28T22:15:19.687Z,18.70
2018-06-28T22:17:48.175Z,18.70
2018-06-28T22:20:17.019Z,18.70
2018-06-28T22:22:45.525Z,18.70
2018-06-28T22:25:13.970Z,18.70
2018-06-28T22:27:42.442Z,18.80
2018-06-28T22:30:10.948Z,18.70
2018-06-28T22:32:39.390Z,18.70
2018-06-28T22:35:07.846Z,18.70
2018-06-28T22:37:36.330Z,18.70
2018-06-28T22:40:04.826Z,18.70
2018-06-28T22:42:33.298Z,18.70
2018-06-28T22:45:01.899Z,18.70
2018-06-28T22:47:30.378Z,18.70
2018-06-28T22:49:58.858Z,18.70
2018-06-28T22:52:27.382Z,18.70
2018-06-28T22:54:56.148Z,18.70
2018-06-28T22:57:24.748Z,18.70
2018-06-28T22:59:53.396Z,18.70
2018-06-28T23:02:21.928Z,18.60
2018-06-28T23:04:50.381Z,18.60
2018-06-28T23:07:18.974Z,18.60
2018-06-28T23:09:47.435Z,18.50
2018-06-28T23:12:15.937Z,18.40
2018-06-28T23:14:44.487Z,18.40
2018-06-28T23:17:12.958Z,18.30
2018-06-28T23:19:41.439Z,18.30
2018-06-28T23:22:30.827Z,18.20
2018-06-28T23:24:59.310Z,18.20
2018-06-28T23:27:27.775Z,18.20
2018-06-28T23:29:56.370Z,18.10
2018-06-28T23:32:24.846Z,18.10
2018-06-28T23:34:53.318Z,18.10
2018-06-28T23:37:21.826Z,18.10
2018-06-28T23:39:50.347Z,18.10
2018-06-28T23:42:19.027Z,18.00
2018-06-28T23:44:47.461Z,18.00
2018-06-28T23:47:16.951Z,18.00
2018-06-28T23:49:45.403Z,18.00
2018-06-28T23:52:13.930Z,18.00
2018-06-28T23:54:42.401Z,18.00
2018-06-28T23:57:10.858Z,18.00
2018-06-28T23:59:39.617Z,17.90
